createdAt,value
2018-05-24T00:07:19.991Z,0
2018-05-24T00:17:19.945Z,0
2018-05-24T00:27:19.958Z,0
2018-05-24T00:37:20.060Z,0
2018-05-24T00:47:19.974Z,0
2018-05-24T00:57:19.599Z,0
2018-05-24T01:17:19.736Z,0
2018-05-24T01:27:20.042Z,0
2018-05-24T01:37:19.615Z,0
2018-05-24T01:47:19.724Z,0
2018-05-24T01:57:19.671Z,0
2018-05-24T02:07:19.577Z,0
2018-05-24T02:17:19.668Z,0
2018-05-24T02:27:19.634Z,0
2018-05-24T02:37:19.603Z,0
2018-05-24T02:47:19.650Z,4
2018-05-24T02:57:19.640Z,12
2018-05-24T03:07:19.676Z,36
2018-05-24T03:17:19.685Z,136
2018-05-24T03:27:19.606Z,284
2018-05-24T03:37:19.666Z,524
2018-05-24T03:47:19.655Z,608
2018-05-24T03:57:19.710Z,784
2018-05-24T04:07:19.674Z,1044
2018-05-24T04:17:19.644Z,1228
2018-05-24T04:27:19.664Z,1672
2018-05-24T04:37:19.647Z,1432
2018-05-24T04:47:19.568Z,3352
2018-05-24T04:57:19.626Z,3972
2018-05-24T05:07:19.615Z,4396
2018-05-24T05:17:19.710Z,4776
2018-05-24T05:27:19.638Z,7008
2018-05-24T05:37:19.607Z,7380
2018-05-24T05:47:19.770Z,13880
2018-05-24T05:57:19.625Z,17456
2018-05-24T06:07:19.937Z,18592
2018-05-24T06:17:19.779Z,24000
2018-05-24T06:27:19.747Z,14336
2018-05-24T06:37:20.952Z,11912
2018-05-24T06:47:20.321Z,19488
2018-05-24T06:57:20.644Z,29632
2018-05-24T07:07:19.738Z,38464
2018-05-24T07:17:19.900Z,37632
2018-05-24T07:27:19.727Z,58368
2018-05-24T07:37:19.704Z,49600
2018-05-24T07:47:31.068Z,19616
2018-05-24T07:57:20.118Z,18464
2018-05-24T08:07:19.676Z,27744
2018-05-24T08:17:19.733Z,27776
2018-05-24T08:27:19.660Z,47104
2018-05-24T08:37:19.756Z,54080
2018-05-24T08:47:19.829Z,32832
2018-05-24T08:57:19.773Z,20960
2018-05-24T09:07:20.096Z,17936
2018-05-24T09:17:19.653Z,25152
2018-05-24T09:27:19.994Z,23200
2018-05-24T09:37:21.194Z,23456
2018-05-24T09:47:23.123Z,12276
2018-05-24T09:57:19.952Z,13324
2018-05-24T10:07:29.595Z,17020
2018-05-24T10:17:26.315Z,15844
2018-05-24T10:27:19.694Z,25408
2018-05-24T10:37:19.789Z,14028
2018-05-24T10:47:20.001Z,7844
2018-05-24T10:57:19.924Z,16132
2018-05-24T11:07:22.858Z,20512
2018-05-24T11:17:19.710Z,13988
2018-05-24T11:27:25.318Z,14336
2018-05-24T11:37:19.861Z,13632
2018-05-24T11:47:20.071Z,10240
2018-05-24T11:57:20.004Z,9148
2018-05-24T12:07:20.765Z,8660
2018-05-24T12:17:19.757Z,9696
2018-05-24T12:27:19.711Z,11760
2018-05-24T12:37:20.256Z,10928
2018-05-24T12:47:19.684Z,11348
2018-05-24T12:57:19.729Z,5464
2018-05-24T13:07:19.719Z,8836
2018-05-24T13:17:19.945Z,10724
2018-05-24T13:27:19.712Z,12272
2018-05-24T13:37:20.370Z,8292
2018-05-24T13:47:20.897Z,6300
2018-05-24T13:57:19.734Z,8036
2018-05-24T14:07:22.972Z,7488
2018-05-24T14:17:19.868Z,8308
2018-05-24T14:27:19.752Z,8064
2018-05-24T14:37:19.979Z,4440
2018-05-24T14:47:19.822Z,4816
2018-05-24T14:57:20.289Z,7400
2018-05-24T15:07:20.242Z,8428
2018-05-24T15:17:19.695Z,8864
2018-05-24T15:27:19.781Z,5676
2018-05-24T15:37:19.901Z,5164
2018-05-24T15:47:19.896Z,7312
2018-05-24T15:57:19.775Z,8232
2018-05-24T16:07:19.987Z,8536
2018-05-24T16:17:20.238Z,9564
2018-05-24T16:27:19.946Z,9172
2018-05-24T16:37:19.885Z,7024
2018-05-24T16:47:20.065Z,4432
2018-05-24T16:57:20.009Z,4292
2018-05-24T17:07:20.010Z,3824
2018-05-24T17:17:20.474Z,4704
2018-05-24T17:27:20.099Z,5712
2018-05-24T17:37:19.763Z,4040
2018-05-24T17:47:20.123Z,2584
2018-05-24T17:57:19.884Z,1672
2018-05-24T18:07:19.815Z,1040
2018-05-24T18:17:19.888Z,1772
2018-05-24T18:27:19.722Z,1704
2018-05-24T18:37:19.826Z,1364
2018-05-24T18:47:19.821Z,896
2018-05-24T18:57:19.761Z,316
2018-05-24T19:07:19.775Z,168
2018-05-24T19:17:21.020Z,116
2018-05-24T19:27:19.800Z,84
2018-05-24T19:37:19.890Z,48
2018-05-24T19:47:20.275Z,16
2018-05-24T19:57:19.894Z,8
2018-05-24T20:07:19.809Z,4
2018-05-24T20:17:44.904Z,4
2018-05-24T20:27:20.417Z,0
2018-05-24T20:37:20.568Z,0
2018-05-24T20:47:20.083Z,0
2018-05-24T20:57:19.929Z,0
2018-05-24T21:07:20.003Z,0
2018-05-24T21:17:19.825Z,0
2018-05-24T21:27:19.905Z,0
2018-05-24T21:37:19.946Z,0
2018-05-24T21:47:19.828Z,0
2018-05-24T21:57:19.886Z,0
2018-05-24T22:07:19.978Z,0
2018-05-24T22:17:19.823Z,0
2018-05-24T22:27:19.867Z,0
2018-05-24T22:37:19.822Z,0
2018-05-24T22:47:19.840Z,0
2018-05-24T22:57:19.800Z,0
2018-05-24T23:07:19.807Z,0
2018-05-24T23:17:19.857Z,0
2018-05-24T23:27:19.820Z,0
2018-05-24T23:37:26.745Z,0
2018-05-24T23:47:42.538Z,0
